createdAt,value
2023-01-18T00:04:17.258Z,4.30
2023-01-18T00:09:22.768Z,3.10
2023-01-18T00:14:28.157Z,3.10
2023-01-18T00:19:34.126Z,3.30
2023-01-18T00:24:39.525Z,2.63
2023-01-18T00:29:45.027Z,3.20
2023-01-18T00:34:50.696Z,4.23
2023-01-18T00:39:56.151Z,3.00
2023-01-18T00:45:01.537Z,3.40
2023-01-18T00:50:07.767Z,3.40
2023-01-18T00:55:13.652Z,4.00
2023-01-18T01:00:20.567Z,3.43
2023-01-18T01:05:45.610Z,3.47
2023-01-18T01:10:53.602Z,3.17
2023-01-18T01:16:17.159Z,3.73
2023-01-18T01:21:40.503Z,3.37
2023-01-18T01:26:46.004Z,4.07
2023-01-18T01:31:51.402Z,3.00
2023-01-18T01:36:57.343Z,3.70
2023-01-18T01:42:02.814Z,3.07
2023-01-18T01:47:17.049Z,3.57
2023-01-18T01:52:25.619Z,3.07
2023-01-18T01:57:34.006Z,3.63
2023-01-18T02:02:41.632Z,4.47
2023-01-18T02:07:48.310Z,3.57
2023-01-18T02:12:55.224Z,3.70
2023-01-18T02:18:03.929Z,3.60
2023-01-18T02:23:34.005Z,4.27
2023-01-18T02:28:41.419Z,3.40
2023-01-18T02:33:59.076Z,3.67
2023-01-18T02:39:10.871Z,3.73
2023-01-18T02:44:37.397Z,3.37
2023-01-18T02:49:43.634Z,3.00
2023-01-18T02:54:49.133Z,2.30
2023-01-18T02:59:56.717Z,2.50
2023-01-18T03:05:03.701Z,2.10
2023-01-18T03:10:11.636Z,2.40
2023-01-18T03:15:20.051Z,1.90
2023-01-18T03:20:28.886Z,2.40
2023-01-18T03:25:46.058Z,2.80
2023-01-18T03:31:12.816Z,2.30
2023-01-18T03:36:24.317Z,2.00
2023-01-18T03:41:32.809Z,2.33
2023-01-18T03:46:40.235Z,2.73
2023-01-18T03:51:51.382Z,1.87
2023-01-18T03:57:05.688Z,1.90
2023-01-18T04:02:11.473Z,2.13
2023-01-18T04:07:16.953Z,2.53
2023-01-18T04:12:22.560Z,1.97
2023-01-18T04:17:28.092Z,2.13
2023-01-18T04:22:33.809Z,1.90
2023-01-18T04:27:39.249Z,2.77
2023-01-18T04:32:46.468Z,2.30
2023-01-18T04:37:55.027Z,2.20
2023-01-18T04:43:00.782Z,2.00
2023-01-18T04:48:07.069Z,2.93
2023-01-18T04:53:12.521Z,2.90
2023-01-18T04:58:18.117Z,2.50
2023-01-18T05:03:24.493Z,2.60
2023-01-18T05:08:29.960Z,2.50
2023-01-18T05:13:37.149Z,2.87
2023-01-18T05:18:42.592Z,2.00
2023-01-18T05:23:48.039Z,1.93
2023-01-18T05:28:58.061Z,2.50
2023-01-18T05:34:03.569Z,1.90
2023-01-18T05:39:09.552Z,1.73
2023-01-18T05:44:15.382Z,2.20
2023-01-18T05:49:20.919Z,2.27
2023-01-18T05:54:26.370Z,2.50
2023-01-18T05:59:33.153Z,2.40
2023-01-18T06:04:38.699Z,2.27
2023-01-18T06:09:44.199Z,2.73
2023-01-18T06:14:49.577Z,2.33
2023-01-18T06:19:55.021Z,3.13
2023-01-18T06:25:00.702Z,3.23
2023-01-18T06:30:07.611Z,2.80
2023-01-18T06:35:13.052Z,2.67
2023-01-18T06:40:18.926Z,3.50
2023-01-18T06:45:25.987Z,3.87
2023-01-18T06:50:31.442Z,4.03
2023-01-18T06:55:36.964Z,3.17
2023-01-18T07:00:42.478Z,4.73
2023-01-18T07:05:48.304Z,4.83
2023-01-18T07:10:55.240Z,4.40
2023-01-18T07:16:02.144Z,4.67
2023-01-18T07:21:08.762Z,4.60
2023-01-18T07:26:17.172Z,5.30
2023-01-18T07:31:23.963Z,4.60
2023-01-18T07:36:29.411Z,4.23
2023-01-18T07:41:35.053Z,3.70
2023-01-18T07:46:42.246Z,3.00
2023-01-18T07:51:47.908Z,3.67
2023-01-18T07:56:53.743Z,4.93
2023-01-18T08:01:59.208Z,4.27
2023-01-18T08:07:04.651Z,4.00
2023-01-18T08:12:11.821Z,3.80
2023-01-18T08:17:17.282Z,3.30
2023-01-18T08:22:22.885Z,3.47
2023-01-18T08:27:28.935Z,4.63
2023-01-18T08:32:34.716Z,3.77
2023-01-18T08:37:40.624Z,4.63
2023-01-18T08:42:46.911Z,5.60
2023-01-18T08:48:02.582Z,6.33
2023-01-18T08:53:08.183Z,5.23
2023-01-18T08:58:13.966Z,6.97
2023-01-18T09:03:23.354Z,10.77
2023-01-18T09:08:29.607Z,11.50
2023-01-18T09:13:35.362Z,14.33
2023-01-18T09:18:40.894Z,18.43
2023-01-18T09:23:46.278Z,20.33
2023-01-18T09:28:53.787Z,18.33
2023-01-18T09:34:17.715Z,21.50
2023-01-18T09:39:08.006Z,21.77
2023-01-18T09:44:19.493Z,24.57
2023-01-18T09:49:39.806Z,23.37
2023-01-18T09:54:50.881Z,27.83
2023-01-18T09:59:59.133Z,28.50
2023-01-18T10:05:08.149Z,28.20
2023-01-18T10:10:18.366Z,33.20
2023-01-18T10:15:27.227Z,25.37
2023-01-18T10:20:50.794Z,22.47
2023-01-18T10:25:59.460Z,14.23
2023-01-18T10:31:20.030Z,14.07
2023-01-18T10:36:35.776Z,14.60
2023-01-18T10:41:42.465Z,14.23
2023-01-18T10:46:48.702Z,15.60
2023-01-18T10:51:54.103Z,16.57
2023-01-18T10:57:04.831Z,19.60
2023-01-18T11:02:25.160Z,14.87
2023-01-18T11:07:31.881Z,13.53
2023-01-18T11:12:43.340Z,14.87
2023-01-18T11:18:07.221Z,13.83
2023-01-18T11:23:25.611Z,14.90
2023-01-18T11:28:49.708Z,12.60
2023-01-18T11:34:03.686Z,13.53
2023-01-18T11:39:30.522Z,13.90
2023-01-18T11:44:38.171Z,11.77
2023-01-18T11:49:55.559Z,11.53
2023-01-18T11:55:04.349Z,11.77
2023-01-18T12:00:12.974Z,10.37
2023-01-18T12:05:36.325Z,12.00
2023-01-18T12:10:50.850Z,11.73
2023-01-18T12:16:01.090Z,12.93
2023-01-18T12:21:31.316Z,12.53
2023-01-18T12:26:46.440Z,11.27
2023-01-18T12:32:00.928Z,10.33
2023-01-18T12:37:31.493Z,11.53
2023-01-18T12:42:43.538Z,10.57
2023-01-18T12:47:58.877Z,10.97
2023-01-18T12:53:10.476Z,12.30
2023-01-18T12:58:18.979Z,12.97
2023-01-18T13:03:27.410Z,14.77
2023-01-18T13:08:52.624Z,19.07
2023-01-18T13:14:06.464Z,14.13
2023-01-18T13:19:17.122Z,11.87
2023-01-18T13:24:28.283Z,12.17
2023-01-18T13:29:33.872Z,10.93
2023-01-18T13:34:48.408Z,10.67
2023-01-18T13:39:49.480Z,11.10
2023-01-18T13:45:22.354Z,10.70
2023-01-18T13:50:38.188Z,9.27
2023-01-18T13:55:52.508Z,9.60
2023-01-18T14:01:04.081Z,9.80
2023-01-18T14:06:15.283Z,9.43
2023-01-18T14:11:26.758Z,9.30
2023-01-18T14:16:38.242Z,8.80
2023-01-18T14:22:07.737Z,10.20
2023-01-18T14:27:25.190Z,10.87
2023-01-18T14:32:33.620Z,9.13
2023-01-18T14:37:39.283Z,9.87
2023-01-18T14:43:06.502Z,10.43
2023-01-18T14:48:19.400Z,9.93
2023-01-18T14:53:29.118Z,10.13
2023-01-18T14:58:37.539Z,10.27
2023-01-18T15:03:43.512Z,11.20
2023-01-18T15:08:50.020Z,9.97
2023-01-18T15:13:58.417Z,10.43
2023-01-18T15:19:04.647Z,10.93
2023-01-18T15:24:13.253Z,10.23
2023-01-18T15:29:21.224Z,9.67
2023-01-18T15:34:36.466Z,11.50
2023-01-18T15:40:00.401Z,10.50
2023-01-18T15:45:08.811Z,11.60
2023-01-18T15:50:20.869Z,11.10
2023-01-18T15:55:29.327Z,10.10
2023-01-18T16:00:41.287Z,9.90
2023-01-18T16:05:58.552Z,10.30
2023-01-18T16:11:04.250Z,10.03
2023-01-18T16:16:15.833Z,9.47
2023-01-18T16:21:30.159Z,10.00
2023-01-18T16:26:35.696Z,10.20
2023-01-18T16:31:43.811Z,9.20
2023-01-18T16:36:50.508Z,9.27
2023-01-18T16:41:59.248Z,10.17
2023-01-18T16:47:05.349Z,10.83
2023-01-18T16:52:14.256Z,11.03
2023-01-18T16:57:22.686Z,9.00
2023-01-18T17:02:28.224Z,9.77
2023-01-18T17:07:34.144Z,9.40
2023-01-18T17:12:40.007Z,12.87
2023-01-18T17:17:45.536Z,12.20
2023-01-18T17:22:52.865Z,10.03
2023-01-18T17:27:58.998Z,9.37
2023-01-18T17:33:04.773Z,8.93
2023-01-18T17:38:22.121Z,9.20
2023-01-18T17:43:32.254Z,7.27
2023-01-18T17:48:26.308Z,8.03
2023-01-18T17:53:32.102Z,9.13
2023-01-18T17:58:37.711Z,8.67
2023-01-18T18:03:45.882Z,6.67
2023-01-18T18:08:51.361Z,6.90
2023-01-18T18:13:58.460Z,7.07
2023-01-18T18:19:04.537Z,8.07
2023-01-18T18:24:10.267Z,6.90
2023-01-18T18:29:16.173Z,7.50
2023-01-18T18:34:21.652Z,8.40
2023-01-18T18:39:27.127Z,9.00
2023-01-18T18:44:32.738Z,9.70
2023-01-18T18:49:38.322Z,15.00
2023-01-18T18:54:44.032Z,12.20
2023-01-18T18:59:49.554Z,13.77
2023-01-18T19:04:55.409Z,12.40
2023-01-18T19:10:01.602Z,14.00
2023-01-18T19:15:09.228Z,12.07
2023-01-18T19:20:16.020Z,12.23
2023-01-18T19:25:21.932Z,13.80
2023-01-18T19:30:27.476Z,12.33
2023-01-18T19:35:34.389Z,12.80
2023-01-18T19:40:40.285Z,11.77
2023-01-18T19:45:45.795Z,12.83
2023-01-18T19:50:51.359Z,13.40
2023-01-18T19:56:06.918Z,13.43
2023-01-18T20:01:23.103Z,12.93
2023-01-18T20:06:21.904Z,14.07
2023-01-18T20:11:27.711Z,13.83
2023-01-18T20:16:33.252Z,12.93
2023-01-18T20:21:38.739Z,11.37
2023-01-18T20:26:44.688Z,11.70
2023-01-18T20:31:50.881Z,12.07
2023-01-18T20:36:57.652Z,10.17
2023-01-18T20:42:03.180Z,11.67
2023-01-18T20:47:09.969Z,10.57
2023-01-18T20:52:15.852Z,10.67
2023-01-18T20:57:23.245Z,9.53
2023-01-18T21:02:28.706Z,11.50
2023-01-18T21:07:34.379Z,11.23
2023-01-18T21:12:41.474Z,11.60
2023-01-18T21:17:46.901Z,10.00
2023-01-18T21:22:52.428Z,10.13
2023-01-18T21:27:58.348Z,9.13
2023-01-18T21:33:04.555Z,8.63
2023-01-18T21:38:13.371Z,8.10
2023-01-18T21:43:39.220Z,7.90
2023-01-18T21:48:44.675Z,7.20
2023-01-18T21:54:10.657Z,7.57
2023-01-18T21:59:16.198Z,8.57
2023-01-18T22:04:41.742Z,7.10
2023-01-18T22:10:02.628Z,8.20
2023-01-18T22:14:56.357Z,8.47
2023-01-18T22:20:02.201Z,11.40
2023-01-18T22:25:09.127Z,8.33
2023-01-18T22:30:15.039Z,9.20
2023-01-18T22:35:20.426Z,8.27
2023-01-18T22:40:25.894Z,8.53
2023-01-18T22:45:31.493Z,8.03
2023-01-18T22:50:37.073Z,8.27
2023-01-18T22:55:42.457Z,6.70
2023-01-18T23:00:49.676Z,7.73
2023-01-18T23:05:59.932Z,7.73
2023-01-18T23:11:06.657Z,8.17
2023-01-18T23:16:32.981Z,7.67
2023-01-18T23:21:38.353Z,6.97
2023-01-18T23:26:43.878Z,7.70
2023-01-18T23:31:49.636Z,7.70
2023-01-18T23:36:55.743Z,7.23
2023-01-18T23:42:19.299Z,7.37
2023-01-18T23:47:42.783Z,6.33
2023-01-18T23:53:05.922Z,7.20
2023-01-18T23:58:11.380Z,8.03
